Time;durP1;ratioP1;P1;durP2;ratioP2;P2;SDS_P1;SDS_P2;PMS_P1;PMS_P2;Temp;Humidity;BMP_temperature;BMP_pressure;BME280_temperature;BME280_humidity;BME280_pressure;Samples;Min_cycle;Max_cycle;Signal;HPM_P1;HPM_P2
2023/10/17 00:01:10;;;;;;;119.72;114.35;;;;;;;13.03;59.28;101945.81;4954572;29;20031;-77
2023/10/17 00:03:37;;;;;;;123.55;118.15;;;;;;;13.02;59.19;101944.16;4955607;28;20532;-77
2023/10/17 00:06:06;;;;;;;121.82;116.55;;;;;;;13.02;59.05;101944.16;4947581;29;20299;-73
2023/10/17 00:08:35;;;;;;;116.30;111.00;;;;;;;13.02;59.22;101944.16;4936146;29;20039;-75
2023/10/17 00:11:07;;;;;;;124.55;119.18;;;;;;;13.01;59.06;101937.09;4935873;29;20039;-75
2023/10/17 00:13:38;;;;;;;122.38;116.68;;;;;;;12.99;59.06;101935.44;4935627;29;20024;-74
2023/10/17 00:16:11;;;;;;;115.28;110.28;;;;;;;12.99;59.22;101937.31;4943526;29;20043;-77
2023/10/17 00:18:38;;;;;;;120.13;114.80;;;;;;;12.98;59.39;101931.06;4952773;29;20147;-75
2023/10/17 00:23:59;;;;;;;121.95;116.45;;;;;;;12.96;59.19;101922.34;4913285;29;20048;-74
2023/10/17 00:26:25;;;;;;;118.70;113.50;;;;;;;12.97;59.04;101925.88;4935861;29;20035;-77
2023/10/17 00:28:53;;;;;;;123.05;117.55;;;;;;;12.95;58.88;101912.56;4935338;29;20495;-74
2023/10/17 00:31:22;;;;;;;121.43;116.03;;;;;;;12.95;59.08;101907.13;4936355;29;20044;-74
2023/10/17 00:33:57;;;;;;;123.50;118.00;;;;;;;12.94;59.01;101908.19;4933717;29;20027;-74
2023/10/17 00:36:23;;;;;;;119.57;114.35;;;;;;;12.94;59.05;101916.31;4940832;29;20424;-74
2023/10/17 00:38:49;;;;;;;125.85;120.18;;;;;;;12.94;59.03;101915.50;4935093;29;20044;-75
2023/10/17 00:41:34;;;;;;;120.55;115.25;;;;;;;12.93;59.11;101917.38;4934426;29;20055;-75
2023/10/17 00:43:59;;;;;;;118.90;113.60;;;;;;;12.92;59.03;101923.84;4943697;29;20404;-74
2023/10/17 00:46:25;;;;;;;125.90;120.60;;;;;;;12.92;59.17;101923.84;4935362;29;20465;-75
2023/10/17 00:48:52;;;;;;;120.22;114.97;;;;;;;12.91;59.15;101924.09;4944777;29;20395;-75
2023/10/17 00:51:21;;;;;;;118.90;113.70;;;;;;;12.91;59.11;101924.09;4935297;29;20079;-75
2023/10/17 00:53:46;;;;;;;119.82;114.45;;;;;;;12.91;58.96;101924.09;4940025;29;20039;-75
2023/10/17 00:56:13;;;;;;;115.20;110.10;;;;;;;12.89;59.16;101916.19;4933580;29;20499;-74
2023/10/17 00:58:39;;;;;;;114.25;109.20;;;;;;;12.90;59.20;101922.41;4948776;29;20039;-76
2023/10/17 01:01:20;;;;;;;120.50;114.85;;;;;;;12.88;59.00;101925.38;4934980;28;20122;-76
2023/10/17 01:03:48;;;;;;;121.83;116.17;;;;;;;12.88;59.03;101917.25;4898785;29;1125249;-74
2023/10/17 01:08:57;;;;;;;123.10;117.78;;;;;;;12.87;58.89;101923.69;4942882;29;20054;-76
2023/10/17 01:11:30;;;;;;;111.40;106.63;;;;;;;12.86;58.91;101923.94;4944938;28;20050;-75
2023/10/17 01:13:57;;;;;;;123.40;118.00;;;;;;;12.86;59.01;101921.25;4937072;29;20036;-76
2023/10/17 01:16:26;;;;;;;115.05;110.00;;;;;;;12.85;58.95;101912.28;4935913;29;20381;-75
2023/10/17 01:18:53;;;;;;;115.68;110.50;;;;;;;12.85;58.83;101903.28;4943645;29;20031;-73
2023/10/17 01:21:20;;;;;;;122.03;116.68;;;;;;;12.84;58.92;101902.47;4952614;29;20548;-74
2023/10/17 01:23:46;;;;;;;120.03;114.70;;;;;;;12.84;59.05;101913.31;4954005;28;20038;-73
2023/10/17 01:26:20;;;;;;;118.18;112.88;;;;;;;12.84;59.25;101916.03;4938723;28;20114;-74
2023/10/17 01:28:48;;;;;;;124.50;119.07;;;;;;;12.84;58.95;101910.59;4935757;29;20035;-74
2023/10/17 01:31:24;;;;;;;118.00;112.80;;;;;;;12.82;58.89;101904.59;4949361;29;20035;-74
2023/10/17 01:33:53;;;;;;;117.90;112.72;;;;;;;12.83;58.68;101900.00;4945929;28;20075;-74
2023/10/17 01:36:19;;;;;;;121.68;116.18;;;;;;;12.81;58.84;101894.81;4951646;28;20063;-75
2023/10/17 01:38:46;;;;;;;115.07;109.78;;;;;;;12.80;59.07;101895.88;4952545;29;20462;-74
2023/10/17 01:41:12;;;;;;;119.28;114.03;;;;;;;12.77;58.70;101897.16;4952558;29;20039;-74
2023/10/17 01:43:40;;;;;;;113.65;108.57;;;;;;;12.77;58.74;101896.31;4954212;28;20066;-74
2023/10/17 01:46:08;;;;;;;;;;;;;;;12.76;58.92;101883.81;4950371;28;20044;-74
2023/10/17 01:48:35;;;;;;;113.17;108.27;;;;;;;12.74;58.84;101878.63;4951440;29;19978;-73
2023/10/17 01:51:07;;;;;;;115.22;109.93;;;;;;;12.73;58.76;101881.56;4934997;29;20310;-76
2023/10/17 01:53:34;;;;;;;107.75;102.85;;;;;;;12.71;58.86;101876.38;4952240;29;20029;-73
2023/10/17 01:56:08;;;;;;;111.03;105.85;;;;;;;12.71;58.80;101867.41;4951058;29;20370;-74
2023/10/17 01:58:38;;;;;;;115.75;110.55;;;;;;;12.71;58.73;101859.28;4952966;29;20090;-74
2023/10/17 02:01:10;;;;;;;112.28;106.97;;;;;;;12.69;58.75;101850.56;4921409;29;20036;-74
2023/10/17 02:03:36;;;;;;;113.78;108.78;;;;;;;12.68;58.87;101855.16;4934925;29;20044;-75
2023/10/17 02:06:01;;;;;;;109.50;104.55;;;;;;;12.67;58.89;101852.66;4933360;29;20059;-74
2023/10/17 02:08:27;;;;;;;114.53;109.03;;;;;;;12.64;58.56;101856.66;4948170;29;20130;-75
2023/10/17 02:10:52;;;;;;;111.03;106.20;;;;;;;12.64;58.67;101858.53;4917649;29;20071;-73
2023/10/17 02:13:17;;;;;;;110.93;105.93;;;;;;;12.61;58.87;101853.59;4945524;29;20086;-74
2023/10/17 02:15:44;;;;;;;105.90;101.32;;;;;;;12.61;58.72;101856.28;4936683;29;20042;-74
2023/10/17 02:18:12;;;;;;;108.97;104.13;;;;;;;12.59;58.84;101863.81;4951758;29;20110;-75
2023/10/17 02:20:45;;;;;;;113.03;107.85;;;;;;;12.57;58.78;101855.91;4942319;28;20071;-75
2023/10/17 02:23:19;;;;;;;107.18;102.47;;;;;;;12.57;58.86;101855.91;4934641;29;20111;-76
2023/10/17 02:25:45;;;;;;;115.35;110.10;;;;;;;12.57;58.91;101853.19;4935009;29;20031;-74
2023/10/17 02:28:11;;;;;;;107.43;102.60;;;;;;;12.56;58.61;101856.97;4943717;29;20047;-74
2023/10/17 02:30:36;;;;;;;108.20;103.20;;;;;;;12.55;58.68;101860.75;4946598;29;20045;-75
2023/10/17 02:33:10;;;;;;;108.32;103.57;;;;;;;12.53;58.71;101852.03;4938261;29;20040;-76
2023/10/17 02:35:39;;;;;;;108.00;103.10;;;;;;;12.52;58.96;101858.47;4934503;29;20032;-75
2023/10/17 02:38:05;;;;;;;106.55;101.75;;;;;;;12.51;59.00;101860.38;4942679;29;20041;-76
2023/10/17 02:40:34;;;;;;;105.65;101.03;;;;;;;12.51;59.08;101863.06;4939445;29;20046;-76
2023/10/17 02:43:00;;;;;;;114.53;108.35;;;;;;;12.50;58.65;101866.84;4933066;29;20079;-74
2023/10/17 02:45:25;;;;;;;109.90;105.10;;;;;;;12.48;58.60;101865.44;4934239;29;20036;-75
2023/10/17 02:47:56;;;;;;;109.13;104.18;;;;;;;12.46;58.62;101849.38;4935261;29;20039;-74
2023/10/17 02:51:11;;;;;;;110.45;105.30;;;;;;;12.45;58.64;101841.50;4948392;29;20043;-74
2023/10/17 02:53:13;;;;;;;;;;;;;;;12.44;58.86;101835.22;4940156;29;20036;-73
2023/10/17 02:55:39;;;;;;;99.30;94.55;;;;;;;12.41;58.81;101832.16;4934245;29;20371;-74
2023/10/17 02:58:04;;;;;;;103.18;98.47;;;;;;;12.41;58.81;101834.88;4935990;29;20035;-75
2023/10/17 03:00:33;;;;;;;103.40;98.82;;;;;;;12.40;58.82;101830.50;4931977;29;20051;-75
2023/10/17 03:02:59;;;;;;;104.57;99.95;;;;;;;12.40;58.85;101838.63;4941085;28;20116;-75
2023/10/17 03:05:28;;;;;;;106.95;102.22;;;;;;;12.41;58.92;101834.88;4933864;29;20051;-74
2023/10/17 03:07:54;;;;;;;107.85;103.07;;;;;;;12.41;58.65;101829.44;4952980;29;20047;-73
2023/10/17 03:10:36;;;;;;;108.63;103.80;;;;;;;12.39;58.83;101837.78;4951630;29;20101;-74
2023/10/17 03:13:05;;;;;;;107.18;102.25;;;;;;;12.40;58.62;101838.63;4949542;28;20043;-74
2023/10/17 03:15:31;;;;;;;106.88;102.07;;;;;;;12.38;58.87;101838.88;4945445;29;20038;-74
2023/10/17 03:18:00;;;;;;;105.68;101.10;;;;;;;12.38;58.64;101838.03;4934196;29;20040;-74
2023/10/17 03:20:36;;;;;;;108.43;103.35;;;;;;;12.38;58.99;101843.47;4934104;29;20032;-75
2023/10/17 03:23:08;;;;;;;108.65;103.72;;;;;;;12.37;58.86;101842.63;4941375;29;20048;-75
2023/10/17 03:25:37;;;;;;;108.80;103.82;;;;;;;12.36;58.81;101843.69;4938400;29;20043;-74
2023/10/17 03:28:08;;;;;;;109.80;104.85;;;;;;;12.34;58.60;101841.19;4951065;29;20389;-74
2023/10/17 03:30:34;;;;;;;109.65;104.70;;;;;;;12.33;58.52;101850.38;4951756;29;20035;-75
2023/10/17 03:35:31;;;;;;;103.20;98.65;;;;;;;12.28;58.51;101852.13;4936399;29;20392;-76
2023/10/17 03:37:56;;;;;;;107.72;102.95;;;;;;;12.27;58.51;101845.88;4933623;29;20039;-75
2023/10/17 03:40:30;;;;;;;103.95;99.38;;;;;;;12.26;58.85;101854.22;4952342;28;20050;-75
2023/10/17 03:42:56;;;;;;;102.95;98.32;;;;;;;12.25;58.92;101850.69;4947766;28;20369;-74
2023/10/17 03:47:59;;;;;;;100.78;95.95;;;;;;;12.26;58.65;101852.34;4933897;29;20036;-77
2023/10/17 03:53:36;;;;;;;108.30;103.25;;;;;;;12.27;58.93;101850.44;4940622;29;20054;-77
2023/10/17 03:55:51;;;;;;;105.32;100.72;;;;;;;12.26;58.94;101848.81;4934750;29;20031;-76
2023/10/17 04:01:09;;;;;;;108.35;103.32;;;;;;;12.26;58.96;101846.09;4919182;28;20477;-74
2023/10/17 04:03:35;;;;;;;106.90;101.93;;;;;;;12.25;58.82;101839.03;4936580;29;20032;-77
2023/10/17 04:08:35;;;;;;;103.25;98.40;;;;;;;12.23;58.91;101852.78;4941084;29;20097;-74
2023/10/17 04:11:25;;;;;;;106.60;101.80;;;;;;;12.22;58.63;101853.00;4952761;29;20042;-74
2023/10/17 04:13:53;;;;;;;107.78;103.18;;;;;;;12.22;59.00;101859.28;4954039;29;20043;-77
2023/10/17 04:19:18;;;;;;;110.30;105.22;;;;;;;12.20;58.98;101866.81;4936273;29;20044;-76
2023/10/17 04:24:34;;;;;;;;;;;;;;;12.21;59.00;101867.63;4938019;29;20047;-75
2023/10/17 04:27:18;;;;;;;108.63;103.65;;;;;;;12.19;58.92;101862.41;4950892;29;20319;-75
2023/10/17 04:30:14;;;;;;;102.90;98.40;;;;;;;12.19;58.71;101865.13;4936871;29;20595;-73
2023/10/17 04:32:33;;;;;;;105.13;100.38;;;;;;;12.18;58.75;101876.22;4936128;29;20039;-73
2023/10/17 04:35:01;;;;;;;107.80;103.05;;;;;;;12.18;59.03;101868.09;4937463;29;20032;-74
2023/10/17 04:37:34;;;;;;;112.88;107.78;;;;;;;12.19;59.16;101862.41;4941826;28;20051;-75
2023/10/17 04:42:56;;;;;;;105.07;100.20;;;;;;;12.21;59.12;101857.59;4955447;29;20548;-75
2023/10/17 04:45:23;;;;;;;110.88;105.85;;;;;;;12.22;58.94;101853.88;4951652;29;20035;-75
2023/10/17 04:48:10;;;;;;;113.70;108.30;;;;;;;12.25;59.06;101860.72;4913281;29;20036;-75
2023/10/17 04:50:45;;;;;;;108.97;103.40;;;;;;;12.25;59.13;101858.81;4936481;29;20071;-75
2023/10/17 04:53:27;;;;;;;111.53;106.13;;;;;;;12.25;58.97;101856.13;4936253;29;20046;-75
2023/10/17 04:56:55;;;;;;;106.45;101.53;;;;;;;12.25;59.12;101852.59;4949936;29;20142;-74
2023/10/17 04:58:49;;;;;;;109.53;104.22;;;;;;;12.25;58.91;101844.47;4941628;29;20134;-73
2023/10/17 05:01:41;;;;;;;117.47;112.07;;;;;;;12.24;58.93;101842.78;4938921;29;20253;-75
2023/10/17 05:04:20;;;;;;;111.47;105.72;;;;;;;12.23;58.87;101839.25;4943725;29;20043;-80
2023/10/17 06:17:59;;;;;;;111.28;106.28;;;;;;;11.89;58.81;101827.13;4947991;29;20039;-75
2023/10/17 06:21:06;;;;;;;111.75;106.35;;;;;;;11.88;58.90;101828.19;4935175;29;20039;-72
2023/10/17 06:24:05;;;;;;;112.07;106.85;;;;;;;11.85;58.77;101820.50;4938441;29;20048;-74
2023/10/17 06:30:05;;;;;;;104.32;99.13;;;;;;;11.83;59.04;101819.88;4933726;28;20054;-71
2023/10/17 06:34:21;;;;;;;105.47;100.38;;;;;;;11.80;58.93;101832.00;4944995;29;20050;-73
2023/10/17 06:36:59;;;;;;;102.10;97.15;;;;;;;11.81;58.99;101840.94;4947889;28;20039;-74
2023/10/17 06:39:26;;;;;;;103.57;98.40;;;;;;;11.79;59.28;101834.91;4933955;29;20032;-74
2023/10/17 06:41:52;;;;;;;110.20;105.05;;;;;;;11.76;58.92;101843.47;4946914;29;20414;-73
2023/10/17 06:44:24;;;;;;;109.45;103.80;;;;;;;11.75;58.90;101842.66;4945694;29;20070;-72
2023/10/17 06:46:56;;;;;;;106.85;101.47;;;;;;;11.74;58.83;101843.69;4947697;29;20083;-73
2023/10/17 06:54:41;;;;;;;101.18;96.22;;;;;;;11.72;59.25;101851.25;4933987;29;20396;-74
2023/10/17 06:57:19;;;;;;;97.93;92.85;;;;;;;11.70;58.78;101854.16;4934076;29;20032;-74
2023/10/17 06:59:45;;;;;;;108.22;103.18;;;;;;;11.71;58.79;101846.84;4948114;28;20455;-74
2023/10/17 07:02:18;;;;;;;111.15;105.57;;;;;;;11.72;58.96;101839.56;4943414;29;20250;-73
2023/10/17 07:04:49;;;;;;;106.25;100.60;;;;;;;11.72;58.91;101845.81;4929525;28;20048;-73
2023/10/17 07:07:16;;;;;;;106.22;100.28;;;;;;;11.70;58.64;101837.09;4931892;29;20043;-74
2023/10/17 07:09:42;;;;;;;97.72;92.63;;;;;;;11.68;58.69;101842.72;4940060;29;20111;-73
2023/10/17 07:12:14;;;;;;;100.65;95.55;;;;;;;11.66;59.08;101834.00;4949422;29;20035;-73
2023/10/17 07:14:48;;;;;;;103.32;97.63;;;;;;;11.66;58.95;101836.69;4933877;29;20035;-73
2023/10/17 07:17:27;;;;;;;106.43;101.00;;;;;;;11.67;58.95;101830.25;4933085;29;20036;-75
2023/10/17 07:19:59;;;;;;;108.18;102.82;;;;;;;11.65;58.52;101829.63;4935472;29;20042;-75
2023/10/17 07:22:25;;;;;;;108.57;103.13;;;;;;;11.64;58.98;101829.84;4940060;28;20047;-75
2023/10/17 07:24:52;;;;;;;100.68;95.88;;;;;;;11.62;59.31;101829.28;4939694;28;20071;-74
2023/10/17 07:27:38;;;;;;;105.43;100.47;;;;;;;11.62;58.98;101837.38;4949158;29;20031;-75
2023/10/17 07:30:10;;;;;;;99.22;94.30;;;;;;;11.62;59.02;101840.09;4942784;28;20038;-75
2023/10/17 07:32:45;;;;;;;103.50;97.72;;;;;;;11.62;59.17;101840.91;4943458;29;20501;-77
2023/10/17 07:35:15;;;;;;;103.15;98.00;;;;;;;11.61;59.33;101843.84;4953086;29;20620;-74
2023/10/17 07:37:56;;;;;;;111.43;105.82;;;;;;;11.62;59.47;101849.03;4939384;28;20604;-74
2023/10/17 07:40:31;;;;;;;102.72;97.82;;;;;;;11.63;59.50;101841.75;4953238;29;20047;-76
2023/10/17 07:43:00;;;;;;;100.25;95.30;;;;;;;11.63;59.01;101839.84;4948457;28;20031;-75
2023/10/17 07:45:41;;;;;;;104.50;99.38;;;;;;;11.63;59.27;101836.31;4936901;29;20039;-74
2023/10/17 07:48:20;;;;;;;96.15;91.47;;;;;;;11.61;59.09;101830.31;4946818;28;20027;-75
2023/10/17 07:50:50;;;;;;;107.50;102.30;;;;;;;11.60;59.16;101834.91;4934460;29;20484;-76
2023/10/17 07:53:20;;;;;;;100.80;96.40;;;;;;;11.59;59.26;101835.09;4936347;29;20042;-75
2023/10/17 07:55:52;;;;;;;112.07;106.38;;;;;;;11.58;59.20;101838.88;4936470;29;20031;-75
2023/10/17 07:58:35;;;;;;;103.28;98.28;;;;;;;11.57;59.32;101829.94;4936054;28;20556;-72
2023/10/17 08:01:04;;;;;;;108.45;103.32;;;;;;;11.56;59.54;101838.25;4938671;29;20468;-75
2023/10/17 08:03:29;;;;;;;108.05;102.25;;;;;;;11.55;59.30;101823.09;4952424;29;20043;-74
2023/10/17 08:06:05;;;;;;;101.00;96.25;;;;;;;11.55;59.35;101834.72;4947684;28;20098;-75
2023/10/17 08:08:34;;;;;;;106.15;100.43;;;;;;;11.55;59.33;101826.63;4952734;29;20035;-76
2023/10/17 08:11:08;;;;;;;102.43;96.95;;;;;;;11.54;59.24;101826.81;4952712;28;20074;-77
2023/10/17 08:13:33;;;;;;;107.57;101.78;;;;;;;11.53;59.15;101826.00;4935618;29;20026;-75
2023/10/17 08:16:06;;;;;;;109.18;103.50;;;;;;;11.51;59.25;101817.28;4950506;29;20118;-75
2023/10/17 08:18:39;;;;;;;102.13;97.00;;;;;;;11.49;59.33;101824.81;4953877;29;20118;-74
2023/10/17 08:23:49;;;;;;;99.30;94.70;;;;;;;11.42;59.21;101826.75;4953458;29;20094;-75
2023/10/17 08:26:17;;;;;;;102.68;97.53;;;;;;;11.40;59.34;101826.97;4950425;29;20043;-75
2023/10/17 08:28:46;;;;;;;100.00;94.97;;;;;;;11.41;59.50;101831.31;4937373;29;20039;-73
2023/10/17 08:31:35;;;;;;;102.57;97.47;;;;;;;11.41;59.64;101831.31;4954112;28;20485;-75
2023/10/17 08:36:53;;;;;;;104.55;99.38;;;;;;;11.41;59.77;101830.47;4951472;29;20138;-75
2023/10/17 08:41:57;;;;;;;103.00;98.07;;;;;;;11.41;59.59;101836.72;4952835;28;20090;-75
2023/10/17 08:44:46;;;;;;;100.63;95.88;;;;;;;11.42;59.84;101824.88;4953557;28;20051;-74
2023/10/17 08:47:17;;;;;;;95.53;90.53;;;;;;;11.43;59.99;101826.50;4943667;28;20040;-75
2023/10/17 08:49:44;;;;;;;100.03;94.88;;;;;;;11.44;59.89;101828.19;4949376;29;20492;-74
2023/10/17 08:52:24;;;;;;;92.80;88.53;;;;;;;11.44;60.07;101828.19;4952507;29;20167;-73
2023/10/17 08:54:51;;;;;;;99.18;94.47;;;;;;;11.45;59.85;101835.22;4953084;28;20027;-75
2023/10/17 08:57:17;;;;;;;99.75;94.53;;;;;;;11.47;60.16;101840.44;4945877;28;20048;-75
2023/10/17 09:05:19;;;;;;;91.72;87.18;;;;;;;11.50;60.08;101836.47;4953350;28;20122;-74
2023/10/17 09:07:55;;;;;;;105.35;100.35;;;;;;;11.49;60.19;101843.75;4946330;28;20118;-74
2023/10/17 09:10:21;;;;;;;99.68;94.70;;;;;;;11.48;60.06;101833.97;4934610;29;20046;-73
2023/10/17 09:13:52;;;;;;;104.38;99.15;;;;;;;11.48;60.02;101825.84;4936723;29;20107;-73
2023/10/17 09:15:57;;;;;;;105.72;100.55;;;;;;;11.51;59.89;101827.28;4944899;29;20043;-75
2023/10/17 09:18:28;;;;;;;102.88;98.15;;;;;;;11.49;60.11;101827.53;4951456;28;20126;-75
2023/10/17 09:20:57;;;;;;;99.70;95.05;;;;;;;11.48;60.23;101810.44;4943587;28;20027;-74
2023/10/17 09:23:28;;;;;;;102.70;97.68;;;;;;;11.50;59.64;101820.22;4950401;29;20035;-74
2023/10/17 09:25:57;;;;;;;101.72;96.88;;;;;;;11.51;59.82;101819.97;4932095;29;20047;-75
2023/10/17 09:28:25;;;;;;;;;;;;;;;11.51;59.82;101819.97;4953197;28;20035;-74
2023/10/17 09:31:06;;;;;;;103.05;98.13;;;;;;;11.52;59.71;101829.78;4945511;29;20395;-75
2023/10/17 09:33:34;;;;;;;102.82;97.80;;;;;;;11.52;59.71;101834.38;4962974;28;20414;-76
2023/10/17 09:36:04;;;;;;;98.72;94.05;;;;;;;11.51;59.69;101819.16;4949224;28;20085;-73
2023/10/17 09:38:46;;;;;;;100.25;95.25;;;;;;;11.52;59.64;101831.66;4947566;29;20483;-75
2023/10/17 09:41:19;;;;;;;94.95;90.20;;;;;;;11.53;59.66;101817.88;4932171;29;20063;-75
2023/10/17 09:43:46;;;;;;;99.45;94.05;;;;;;;11.55;59.51;101825.78;4951787;28;20041;-74
2023/10/17 09:46:12;;;;;;;98.75;93.78;;;;;;;11.55;59.34;101834.72;4939538;29;20054;-75
2023/10/17 09:48:43;;;;;;;101.50;96.43;;;;;;;11.58;59.41;101822.63;4951230;29;20027;-75
2023/10/17 09:51:12;;;;;;;98.75;94.13;;;;;;;11.59;59.64;101819.72;4943313;28;20043;-74
2023/10/17 09:53:39;;;;;;;107.28;102.18;;;;;;;11.61;59.46;101824.91;4935130;29;20107;-75
2023/10/17 09:56:15;;;;;;;99.25;94.50;;;;;;;11.62;59.43;101831.97;4938994;29;20050;-75
2023/10/17 09:58:45;;;;;;;99.63;94.72;;;;;;;11.64;59.26;101836.13;4963491;28;20034;-75
2023/10/17 10:01:17;;;;;;;100.70;96.10;;;;;;;11.68;59.33;101840.00;4940459;29;20032;-75
2023/10/17 10:03:45;;;;;;;103.28;98.55;;;;;;;11.70;59.07;101840.63;4951368;28;20051;-72
2023/10/17 10:06:23;;;;;;;105.22;100.28;;;;;;;11.72;58.97;101840.41;4942467;28;20048;-75
2023/10/17 10:08:54;;;;;;;100.32;95.45;;;;;;;11.74;58.84;101834.75;4940020;29;20508;-75
2023/10/17 10:11:19;;;;;;;105.70;100.53;;;;;;;11.75;58.95;101833.72;4944527;29;20042;-76
2023/10/17 10:14:11;;;;;;;108.53;102.93;;;;;;;11.76;58.78;101822.66;4932724;29;20035;-76
2023/10/17 10:16:54;;;;;;;105.43;99.22;;;;;;;11.78;58.67;101812.44;4933633;29;20044;-75
2023/10/17 10:19:21;;;;;;;107.38;102.50;;;;;;;11.79;58.25;101816.81;4949840;29;20038;-74
2023/10/17 10:22:06;;;;;;;111.10;105.63;;;;;;;11.81;58.23;101811.16;4932962;29;20039;-74
2023/10/17 10:24:36;;;;;;;102.72;96.75;;;;;;;11.83;57.99;101812.59;4939895;29;20043;-72
2023/10/17 10:27:14;;;;;;;101.68;96.68;;;;;;;11.85;57.49;101809.66;4946958;28;20064;-74
2023/10/17 10:29:40;;;;;;;100.70;96.10;;;;;;;11.84;57.39;101805.28;4937623;29;20498;-76
2023/10/17 10:32:08;;;;;;;110.45;105.38;;;;;;;11.85;57.22;101796.94;4948470;29;20046;-76
2023/10/17 10:34:37;;;;;;;114.10;108.68;;;;;;;11.86;57.05;101804.03;4943848;29;20035;-74
2023/10/17 10:37:13;;;;;;;107.00;101.88;;;;;;;11.88;56.46;101801.13;4950712;28;20035;-76
2023/10/17 10:39:38;;;;;;;104.70;99.82;;;;;;;11.89;56.44;101800.06;4924127;29;20179;-75
2023/10/17 10:42:07;;;;;;;109.47;104.30;;;;;;;11.92;56.38;101802.34;4938932;29;20074;-74
2023/10/17 10:44:42;;;;;;;107.70;102.35;;;;;;;11.93;56.55;101795.84;4931489;29;20087;-75
2023/10/17 10:47:08;;;;;;;103.63;98.97;;;;;;;11.95;56.67;101791.03;4938741;29;20126;-73
2023/10/17 10:49:33;;;;;;;108.68;103.50;;;;;;;11.97;56.36;101790.81;4933012;29;20035;-73
2023/10/17 10:51:59;;;;;;;111.63;106.63;;;;;;;12.00;56.17;101795.78;4945389;29;20034;-75
2023/10/17 10:54:45;;;;;;;107.38;102.57;;;;;;;12.02;56.11;101786.38;4935077;29;20095;-73
2023/10/17 10:57:12;;;;;;;106.32;101.43;;;;;;;12.03;56.03;101782.63;4947817;29;20042;-74
2023/10/17 10:59:48;;;;;;;106.90;102.00;;;;;;;12.06;56.35;101778.63;4931873;29;20043;-73
2023/10/17 11:02:14;;;;;;;107.10;102.13;;;;;;;12.08;55.81;101771.91;4945862;29;20043;-74
2023/10/17 11:04:39;;;;;;;111.20;106.13;;;;;;;12.07;55.88;101773.00;4932192;29;20039;-73
2023/10/17 11:07:22;;;;;;;104.15;99.20;;;;;;;12.08;56.80;101771.09;4954036;28;20058;-73
2023/10/17 11:10:04;;;;;;;110.60;104.95;;;;;;;12.08;55.80;101768.41;4953458;29;20523;-72
2023/10/17 11:12:29;;;;;;;107.78;102.88;;;;;;;12.10;55.92;101750.03;4945045;28;20475;-72
2023/10/17 11:15:14;;;;;;;110.22;105.18;;;;;;;12.13;55.56;101750.41;4937298;29;20042;-74
2023/10/17 11:17:41;;;;;;;109.22;104.22;;;;;;;12.14;55.44;101743.09;4949763;29;20510;-74
2023/10/17 11:20:18;;;;;;;117.68;112.25;;;;;;;12.13;55.99;101741.44;4936790;29;20063;-73
2023/10/17 11:22:46;;;;;;;110.50;105.45;;;;;;;12.13;56.05;101739.56;4949521;29;20365;-74
2023/10/17 11:25:13;;;;;;;111.10;106.15;;;;;;;12.16;55.76;101732.03;4948129;29;20043;-73
2023/10/17 11:30:35;;;;;;;108.15;102.85;;;;;;;12.21;55.32;101724.88;4955083;29;20061;-73
2023/10/17 11:33:05;;;;;;;110.72;105.63;;;;;;;12.23;55.26;101716.53;4945033;28;20491;-74
2023/10/17 11:35:34;;;;;;;115.32;110.00;;;;;;;12.25;55.33;101715.25;4942545;28;20051;-74
2023/10/17 11:38:00;;;;;;;;;;;;;;;12.26;55.78;101724.19;4942767;29;20802;-73
2023/10/17 11:40:39;;;;;;;103.50;98.82;;;;;;;12.25;55.68;101720.66;4943703;28;19967;-74
2023/10/17 11:43:18;;;;;;;113.22;108.03;;;;;;;12.28;54.85;101730.22;4936391;29;20114;-74
2023/10/17 11:45:43;;;;;;;;;;;;;;;12.31;54.42;101730.56;4935971;29;20051;-74
2023/10/17 11:48:28;;;;;;;103.10;98.47;;;;;;;12.31;55.41;101732.47;4949194;29;19918;-72
2023/10/17 11:51:12;;;;;;;109.85;104.68;;;;;;;12.31;54.70;101732.47;4936152;29;20066;-74
2023/10/17 11:54:04;;;;;;;112.93;107.13;;;;;;;12.32;55.15;101718.69;4953327;29;20086;-73
2023/10/17 11:56:40;;;;;;;107.80;102.93;;;;;;;12.34;54.84;101721.16;4954859;28;20031;-75
2023/10/17 11:59:18;;;;;;;108.80;103.80;;;;;;;12.39;54.99;101723.19;4949067;29;20035;-73
2023/10/17 12:01:48;;;;;;;114.50;109.22;;;;;;;12.40;54.60;101720.25;4952919;29;20031;-73
2023/10/17 12:04:17;;;;;;;109.22;104.15;;;;;;;12.43;54.26;101719.78;4953995;28;20102;-73
2023/10/17 12:06:44;;;;;;;106.45;101.65;;;;;;;12.44;54.26;101710.56;4936702;28;20135;-74
2023/10/17 12:11:48;;;;;;;110.13;105.03;;;;;;;12.50;54.22;101700.72;4938538;29;20182;-74
2023/10/17 12:14:23;;;;;;;110.10;104.90;;;;;;;12.53;53.76;101695.66;4953588;28;20050;-73
2023/10/17 12:16:58;;;;;;;114.00;108.47;;;;;;;12.56;53.81;101697.06;4947864;28;20071;-72
2023/10/17 12:19:28;;;;;;;114.45;109.35;;;;;;;12.56;53.70;101692.47;4934427;29;20040;-72
2023/10/17 12:21:55;;;;;;;116.07;110.68;;;;;;;12.58;53.15;101683.28;4952063;29;20035;-74
2023/10/17 12:24:24;;;;;;;111.90;106.53;;;;;;;12.62;52.95;101673.63;4953390;28;20122;-74
2023/10/17 12:26:52;;;;;;;112.20;107.18;;;;;;;12.64;52.89;101663.38;4951478;28;20027;-74
2023/10/17 12:29:19;;;;;;;113.78;108.22;;;;;;;12.66;53.03;101664.78;4953200;29;20510;-74
2023/10/17 12:31:45;;;;;;;111.72;106.60;;;;;;;12.68;53.24;101659.16;4952807;29;20046;-80
2023/10/17 12:34:15;;;;;;;111.72;106.63;;;;;;;12.71;52.76;101655.97;4953241;28;20042;-74
2023/10/17 12:36:41;;;;;;;111.22;106.05;;;;;;;12.72;53.44;101635.91;4950963;28;20035;-74
2023/10/17 12:39:07;;;;;;;115.10;110.00;;;;;;;12.73;53.34;101635.69;4944770;29;20148;-73
2023/10/17 12:41:34;;;;;;;118.05;112.57;;;;;;;12.75;52.99;101625.44;4941032;29;20040;-74
2023/10/17 12:43:59;;;;;;;116.40;110.88;;;;;;;12.77;53.38;101623.34;4945694;28;20041;-73
2023/10/17 12:46:25;;;;;;;116.28;110.65;;;;;;;12.82;52.85;101622.59;4945250;29;20035;-74
2023/10/17 12:48:51;;;;;;;114.50;109.47;;;;;;;12.84;52.96;101631.31;4932399;29;20050;-75
2023/10/17 12:51:16;;;;;;;116.32;111.10;;;;;;;12.86;53.05;101615.66;4938737;29;20036;-73
2023/10/17 12:53:41;;;;;;;120.45;115.13;;;;;;;12.88;52.73;101615.44;4950878;29;20042;-73
2023/10/17 12:56:11;;;;;;;119.50;114.32;;;;;;;12.90;52.91;101614.13;4952257;28;20449;-75
2023/10/17 12:58:36;;;;;;;123.82;118.28;;;;;;;12.93;52.85;101605.50;4950108;29;20407;-76
2023/10/17 13:01:05;;;;;;;121.07;115.72;;;;;;;12.93;53.10;101608.22;4951478;29;20472;-74
2023/10/17 13:03:36;;;;;;;123.57;118.15;;;;;;;12.93;53.35;101602.81;4950996;29;20122;-76
2023/10/17 13:06:02;;;;;;;116.47;111.22;;;;;;;12.94;53.14;101609.88;4951306;29;20483;-74
2023/10/17 13:08:28;;;;;;;120.15;114.78;;;;;;;12.95;52.69;101606.09;4953125;28;20043;-74
2023/10/17 13:10:54;;;;;;;122.00;116.50;;;;;;;12.97;52.94;101595.81;4948017;29;20032;-73
2023/10/17 13:13:19;;;;;;;124.72;119.22;;;;;;;12.98;52.70;101613.75;4939579;29;20055;-74
2023/10/17 13:15:45;;;;;;;125.55;119.95;;;;;;;12.99;52.67;101609.97;4942944;29;20086;-73
2023/10/17 13:18:12;;;;;;;116.88;111.57;;;;;;;13.01;52.55;101611.66;4945879;28;20035;-75
2023/10/17 13:20:38;;;;;;;123.72;118.20;;;;;;;13.03;52.34;101598.66;4947436;29;20044;-72
2023/10/17 13:23:04;;;;;;;126.88;121.03;;;;;;;13.05;52.45;101599.25;4936467;29;20038;-74
2023/10/17 13:25:36;;;;;;;122.72;117.10;;;;;;;13.08;52.55;101602.31;4949562;28;20031;-77